Time;durP1;ratioP1;P1;durP2;ratioP2;P2;SDS_P1;SDS_P2;PMS_P1;PMS_P2;Temp;Humidity;BMP_temperature;BMP_pressure;BME280_temperature;BME280_humidity;BME280_pressure;Samples;Min_cycle;Max_cycle;Signal;HPM_P1;HPM_P2
2023/12/29 00:00:35;;;;;;;;;;;;;;;5.80;70.30;100897.81;5462223;32;35063;-72
2023/12/29 00:03:38;;;;;;;;;;;;;;;5.44;71.73;100894.69;5452112;32;34870;-70
2023/12/29 00:06:40;;;;;;;;;;;;;;;5.78;70.48;100893.47;5461581;32;34809;-70
2023/12/29 00:09:58;;;;;;;;;;;;;;;5.50;71.53;100901.59;5451031;32;34816;-71
2023/12/29 00:13:00;;;;;;;;;;;;;;;5.09;72.86;100897.63;5461536;32;36445;-71
2023/12/29 00:16:02;;;;;;;;;;;;;;;5.63;71.31;100895.38;5461895;32;35301;-70
2023/12/29 00:19:04;;;;;;;;;;;;;;;5.86;70.15;100897.72;5466178;32;35023;-70
2023/12/29 00:22:07;;;;;;;;;;;;;;;5.69;69.95;100889.22;5448239;32;34078;-70
2023/12/29 00:25:09;;;;;;;;;;;;;;;5.84;69.73;100883.81;5466438;32;34775;-72
2023/12/29 00:28:12;;;;;;;;;;;;;;;5.62;70.17;100875.38;5461779;32;34368;-70
2023/12/29 00:31:15;;;;;;;;;;;;;;;5.57;70.38;100871.09;5450224;32;34442;-70
2023/12/29 00:34:17;;;;;;;;;;;;;;;5.30;70.89;100865.28;5461258;32;35109;-71
2023/12/29 00:37:20;;;;;;;;;;;;;;;5.54;70.67;100863.28;5467342;32;34307;-71
2023/12/29 00:40:22;;;;;;;;;;;;;;;5.84;68.79;100860.34;5473637;32;35423;-70
2023/12/29 00:43:24;;;;;;;;;;;;;;;5.33;71.22;100867.00;5461461;32;35456;-72
2023/12/29 00:46:26;;;;;;;;;;;;;;;5.53;70.41;100875.47;5465756;32;34625;-71
2023/12/29 00:49:28;;;;;;;;;;;;;;;6.36;68.01;100875.34;5446650;32;35048;-70
2023/12/29 00:52:30;;;;;;;;;;;;;;;6.51;66.37;100869.06;5448207;32;35344;-71
2023/12/29 00:55:32;;;;;;;;;;;;;;;5.52;70.35;100865.06;5460225;32;34371;-71
2023/12/29 00:58:35;;;;;;;;;;;;;;;5.29;71.24;100862.72;5440689;32;35341;-73
2023/12/29 01:01:37;;;;;;;;;;;;;;;5.87;68.89;100855.09;5465563;32;34454;-72
2023/12/29 01:04:39;;;;;;;;;;;;;;;5.88;68.86;100861.19;5461492;32;35938;-72
2023/12/29 01:07:42;;;;;;;;;;;;;;;5.17;71.37;100861.06;5445182;32;34436;-72
2023/12/29 01:10:44;;;;;;;;;;;;;;;5.00;72.74;100863.81;5456701;32;34364;-69
2023/12/29 01:13:46;;;;;;;;;;;;;;;5.18;72.62;100862.81;5465508;32;34252;-71
2023/12/29 01:16:48;;;;;;;;;;;;;;;5.45;70.04;100872.09;5461361;32;35049;-70
2023/12/29 01:19:50;;;;;;;;;;;;;;;5.16;71.92;100875.00;5461203;32;35032;-69
2023/12/29 01:22:53;;;;;;;;;;;;;;;5.29;71.33;100871.37;5445040;32;34357;-72
2023/12/29 01:25:55;;;;;;;;;;;;;;;5.67;69.76;100871.00;5442858;32;35347;-70
2023/12/29 01:28:57;;;;;;;;;;;;;;;5.41;70.27;100870.41;5465555;32;35601;-70
2023/12/29 01:31:59;;;;;;;;;;;;;;;6.01;67.43;100873.22;5460497;32;34693;-69
2023/12/29 01:35:01;;;;;;;;;;;;;;;5.84;68.14;100870.78;5449986;32;35600;-71
2023/12/29 01:38:04;;;;;;;;;;;;;;;5.32;70.14;100854.84;5469551;32;34185;-73
2023/12/29 01:41:06;;;;;;;;;;;;;;;5.29;70.14;100860.09;5463502;32;35133;-70
2023/12/29 01:44:34;;;;;;;;;;;;;;;5.37;69.99;100855.66;5464926;32;35309;-69
2023/12/29 01:47:36;;;;;;;;;;;;;;;5.17;70.99;100855.88;5458722;32;35679;-70
2023/12/29 01:50:40;;;;;;;;;;;;;;;5.23;70.72;100848.00;5464402;32;34402;-71
2023/12/29 01:53:42;;;;;;;;;;;;;;;5.32;70.48;100847.88;5457584;32;34946;-70
2023/12/29 01:56:50;;;;;;;;;;;;;;;5.76;68.75;100843.06;5443376;32;35060;-70
2023/12/29 01:59:52;;;;;;;;;;;;;;;5.29;70.16;100834.91;5465352;32;34756;-69
2023/12/29 02:02:54;;;;;;;;;;;;;;;5.00;70.89;100835.16;5460477;32;34752;-71
2023/12/29 02:05:56;;;;;;;;;;;;;;;5.18;71.23;100831.53;5465607;32;34919;-72
2023/12/29 02:08:59;;;;;;;;;;;;;;;5.00;72.14;100827.34;5445405;32;35605;-70
2023/12/29 02:12:02;;;;;;;;;;;;;;;5.01;71.85;100833.41;5464573;32;35192;-70
2023/12/29 02:15:04;;;;;;;;;;;;;;;4.70;73.69;100822.41;5460985;32;35352;-71
2023/12/29 02:18:06;;;;;;;;;;;;;;;5.28;71.93;100837.50;5459847;32;34369;-72
2023/12/29 02:21:09;;;;;;;;;;;;;;;5.20;71.50;100841.94;5464717;32;34351;-72
2023/12/29 02:24:11;;;;;;;;;;;;;;;4.87;73.19;100831.81;5459414;32;35179;-71
2023/12/29 02:27:19;;;;;;;;;;;;;;;5.08;72.31;100830.75;5464311;32;34986;-72
2023/12/29 02:30:24;;;;;;;;;;;;;;;5.04;71.69;100833.41;5411517;32;900893;-69
2023/12/29 02:33:26;;;;;;;;;;;;;;;5.34;71.84;100827.00;5446602;32;37003;-70
2023/12/29 02:36:28;;;;;;;;;;;;;;;5.59;69.69;100825.84;5432821;32;35389;-71
2023/12/29 02:39:31;;;;;;;;;;;;;;;5.63;69.48;100808.44;5445080;32;34608;-70
2023/12/29 02:42:33;;;;;;;;;;;;;;;5.25;70.55;100796.72;5463832;32;35049;-71
2023/12/29 02:45:35;;;;;;;;;;;;;;;5.12;70.82;100808.12;5434065;32;35511;-70
2023/12/29 02:48:38;;;;;;;;;;;;;;;5.43;69.72;100811.28;5451948;32;34970;-70
2023/12/29 02:51:41;;;;;;;;;;;;;;;5.31;70.35;100808.81;5449917;32;34460;-71
2023/12/29 02:54:43;;;;;;;;;;;;;;;5.28;70.96;100821.84;5464514;32;34999;-71
2023/12/29 02:57:45;;;;;;;;;;;;;;;5.29;71.00;100814.06;5450194;32;35002;-70
2023/12/29 03:00:47;;;;;;;;;;;;;;;5.14;71.37;100809.84;5456242;32;35401;-69
2023/12/29 03:03:50;;;;;;;;;;;;;;;4.97;72.85;100819.59;5451990;32;35016;-72
2023/12/29 03:06:52;;;;;;;;;;;;;;;5.12;71.85;100808.12;5446608;32;34364;-73
2023/12/29 03:09:55;;;;;;;;;;;;;;;5.17;72.09;100793.31;5467265;32;34660;-69
2023/12/29 03:12:57;;;;;;;;;;;;;;;5.19;72.12;100785.50;5441383;32;34721;-69
2023/12/29 03:15:59;;;;;;;;;;;;;;;5.37;71.10;100786.16;5461061;32;34710;-70
2023/12/29 03:19:01;;;;;;;;;;;;;;;5.32;71.47;100784.47;5465128;32;35833;-70
2023/12/29 03:22:04;;;;;;;;;;;;;;;5.15;71.73;100800.28;5446670;32;34907;-70
2023/12/29 03:25:06;;;;;;;;;;;;;;;5.38;72.25;100782.66;5467469;32;34519;-70
2023/12/29 03:28:08;;;;;;;;;;;;;;;5.30;70.62;100791.47;5462099;32;34099;-70
2023/12/29 03:31:11;;;;;;;;;;;;;;;6.19;67.98;100778.16;5448766;32;35594;-72
2023/12/29 03:34:13;;;;;;;;;;;;;;;4.96;72.03;100785.72;5461723;32;34295;-74
2023/12/29 03:37:15;;;;;;;;;;;;;;;5.62;70.71;100798.91;5463054;32;35058;-70
2023/12/29 03:40:17;;;;;;;;;;;;;;;5.44;69.40;100798.22;5465256;32;34489;-71
2023/12/29 03:43:20;;;;;;;;;;;;;;;5.19;71.58;100803.72;5461398;32;34802;-72
2023/12/29 03:46:22;;;;;;;;;;;;;;;5.51;71.24;100792.94;5466743;32;35107;-70
2023/12/29 03:49:24;;;;;;;;;;;;;;;5.24;71.44;100768.94;5446396;32;34734;-73
2023/12/29 03:52:27;;;;;;;;;;;;;;;5.05;71.77;100794.31;5436754;32;34762;-69
2023/12/29 03:55:29;;;;;;;;;;;;;;;4.96;72.09;100793.53;5466465;32;34846;-70
2023/12/29 03:58:31;;;;;;;;;;;;;;;4.47;73.74;100806.97;5463254;32;34465;-69
2023/12/29 04:01:33;;;;;;;;;;;;;;;4.62;72.66;100815.53;5451285;32;35540;-70
2023/12/29 04:04:36;;;;;;;;;;;;;;;4.96;72.36;100811.75;5447702;32;35253;-71
2023/12/29 04:07:39;;;;;;;;;;;;;;;4.47;74.13;100813.03;5466388;32;34069;-70
2023/12/29 04:10:41;;;;;;;;;;;;;;;4.49;73.02;100807.81;5461586;32;34437;-69
2023/12/29 04:13:43;;;;;;;;;;;;;;;4.37;73.45;100819.19;5465748;32;35034;-72
2023/12/29 04:16:46;;;;;;;;;;;;;;;4.82;73.79;100801.47;5461264;32;34368;-70
2023/12/29 04:19:48;;;;;;;;;;;;;;;4.42;75.44;100816.56;5462188;32;35359;-69
2023/12/29 04:22:50;;;;;;;;;;;;;;;4.48;74.12;100816.50;5465382;32;35644;-71
2023/12/29 04:25:52;;;;;;;;;;;;;;;4.51;74.90;100812.16;5461963;32;34690;-69
2023/12/29 04:28:54;;;;;;;;;;;;;;;4.75;73.28;100824.09;5447964;32;34422;-72
2023/12/29 04:31:56;;;;;;;;;;;;;;;4.52;73.05;100823.44;5445025;32;34843;-70
2023/12/29 04:34:59;;;;;;;;;;;;;;;4.85;72.82;100812.75;5466215;32;34298;-69
2023/12/29 04:38:01;;;;;;;;;;;;;;;5.65;69.40;100814.50;5461057;32;34610;-70
2023/12/29 04:41:03;;;;;;;;;;;;;;;6.07;68.29;100805.28;5447388;32;34465;-71
2023/12/29 04:44:06;;;;;;;;;;;;;;;5.59;68.61;100807.59;5465815;32;35591;-71
2023/12/29 04:47:08;;;;;;;;;;;;;;;5.93;68.13;100791.59;5461001;32;36246;-71
2023/12/29 04:50:10;;;;;;;;;;;;;;;5.51;68.09;100787.72;5465348;32;35612;-73
2023/12/29 04:53:12;;;;;;;;;;;;;;;5.37;70.15;100796.56;5458689;32;35358;-69
2023/12/29 04:56:14;;;;;;;;;;;;;;;5.97;67.81;100793.25;5472483;32;34116;-69
2023/12/29 04:59:17;;;;;;;;;;;;;;;5.82;68.51;100806.47;5461043;32;34338;-72
2023/12/29 05:02:19;;;;;;;;;;;;;;;6.07;67.19;100796.59;5446367;32;34751;-69
2023/12/29 05:05:21;;;;;;;;;;;;;;;5.87;68.01;100796.84;5458694;32;35538;-70
2023/12/29 05:08:23;;;;;;;;;;;;;;;5.97;67.18;100807.16;5460404;32;34507;-70
2023/12/29 05:11:26;;;;;;;;;;;;;;;5.02;70.49;100803.88;5466238;32;34962;-71
2023/12/29 05:14:28;;;;;;;;;;;;;;;4.52;71.49;100813.03;5458734;32;34275;-69
2023/12/29 05:17:30;;;;;;;;;;;;;;;5.28;70.62;100816.66;5465322;32;34795;-70
2023/12/29 05:20:33;;;;;;;;;;;;;;;4.48;72.35;100814.78;5461585;32;35252;-70
2023/12/29 05:23:35;;;;;;;;;;;;;;;4.52;73.00;100810.41;5460817;32;35078;-70
2023/12/29 05:26:37;;;;;;;;;;;;;;;4.77;72.41;100808.47;5465772;32;35315;-72
2023/12/29 05:29:39;;;;;;;;;;;;;;;4.77;72.71;100821.50;5460832;32;35383;-71
2023/12/29 05:32:41;;;;;;;;;;;;;;;4.68;72.47;100822.41;5448750;32;34608;-69
2023/12/29 05:35:44;;;;;;;;;;;;;;;4.48;72.96;100822.56;5440621;32;34709;-69
2023/12/29 05:38:46;;;;;;;;;;;;;;;3.85;74.49;100819.47;5447908;32;35048;-70
2023/12/29 05:41:49;;;;;;;;;;;;;;;3.68;76.65;100832.56;5447327;32;34707;-70
2023/12/29 05:44:51;;;;;;;;;;;;;;;3.43;77.56;100825.72;5460630;32;34185;-70
2023/12/29 05:47:53;;;;;;;;;;;;;;;3.69;78.54;100843.84;5465070;32;33896;-72
2023/12/29 05:50:55;;;;;;;;;;;;;;;3.73;77.19;100843.78;5459453;32;34344;-72
2023/12/29 05:53:57;;;;;;;;;;;;;;;2.96;80.36;100847.44;5461873;32;34906;-69
2023/12/29 05:56:59;;;;;;;;;;;;;;;2.98;81.70;100851.78;5468286;32;34821;-70
2023/12/29 06:00:02;;;;;;;;;;;;;;;3.30;80.27;100845.69;5464364;32;34744;-70
2023/12/29 06:03:04;;;;;;;;;;;;;;;3.46;78.81;100836.97;5446506;32;35507;-70
2023/12/29 06:06:06;;;;;;;;;;;;;;;3.12;79.14;100848.31;5429400;32;34499;-72
2023/12/29 06:09:09;;;;;;;;;;;;;;;4.48;75.06;100848.59;5464523;32;35543;-69
2023/12/29 06:12:10;;;;;;;;;;;;;;;4.60;71.10;100847.66;5460447;32;34414;-69
2023/12/29 06:15:13;;;;;;;;;;;;;;;3.77;76.28;100847.25;5465056;32;35647;-70
2023/12/29 06:18:18;;;;;;;;;;;;;;;3.16;78.66;100863.03;5459591;32;36573;-73
2023/12/29 06:21:20;;;;;;;;;;;;;;;3.78;76.03;100844.66;5463889;32;35137;-71
2023/12/29 06:24:22;;;;;;;;;;;;;;;4.73;72.49;100851.91;5448448;32;35533;-69
2023/12/29 06:27:25;;;;;;;;;;;;;;;3.32;77.50;100849.12;5462478;32;34988;-74
2023/12/29 06:30:27;;;;;;;;;;;;;;;3.13;79.50;100840.50;5445040;32;34557;-72
2023/12/29 06:33:29;;;;;;;;;;;;;;;3.88;76.47;100847.22;5443691;32;35351;-69
2023/12/29 06:36:31;;;;;;;;;;;;;;;3.73;75.89;100836.00;5464872;32;34117;-71
2023/12/29 06:39:33;;;;;;;;;;;;;;;3.63;77.21;100846.44;5464235;32;35180;-71
2023/12/29 06:42:35;;;;;;;;;;;;;;;3.03;79.68;100849.19;5462944;32;34882;-71
2023/12/29 06:45:37;;;;;;;;;;;;;;;4.34;74.81;100848.69;5463440;32;35132;-70
2023/12/29 06:48:41;;;;;;;;;;;;;;;3.82;75.66;100855.91;5464067;32;34304;-70
2023/12/29 06:51:44;;;;;;;;;;;;;;;3.85;76.20;100862.81;5459124;32;34649;-69
2023/12/29 06:54:46;;;;;;;;;;;;;;;4.32;74.83;100853.06;5465128;32;35320;-69
2023/12/29 06:57:48;;;;;;;;;;;;;;;4.46;74.42;100855.56;5465110;32;35375;-70
2023/12/29 07:00:50;;;;;;;;;;;;;;;3.76;77.71;100855.94;5461501;32;34514;-73
2023/12/29 07:03:52;;;;;;;;;;;;;;;3.13;80.47;100844.84;5465572;32;34503;-70
2023/12/29 07:06:54;;;;;;;;;;;;;;;3.99;78.53;100843.72;5463804;32;35059;-74
2023/12/29 07:09:56;;;;;;;;;;;;;;;4.10;78.92;100845.38;5464943;32;34861;-71
2023/12/29 07:12:58;;;;;;;;;;;;;;;4.65;74.92;100845.91;5465351;32;34713;-73
2023/12/29 07:16:00;;;;;;;;;;;;;;;4.47;75.63;100846.03;5461931;32;34184;-71
2023/12/29 07:19:03;;;;;;;;;;;;;;;4.73;74.98;100849.28;5467889;32;34903;-70
2023/12/29 07:22:08;;;;;;;;;;;;;;;4.49;75.74;100849.47;5460337;32;34631;-70
2023/12/29 07:25:11;;;;;;;;;;;;;;;4.30;76.69;100856.53;5451833;32;35755;-69
2023/12/29 07:28:13;;;;;;;;;;;;;;;5.28;73.19;100848.81;5449389;32;34763;-72
2023/12/29 07:31:15;;;;;;;;;;;;;;;5.07;72.78;100847.25;5461362;32;35113;-72
2023/12/29 07:34:17;;;;;;;;;;;;;;;5.89;69.16;100848.09;5468254;32;34953;-71
2023/12/29 07:37:19;;;;;;;;;;;;;;;5.60;68.98;100847.56;5461329;32;34758;-69
2023/12/29 07:40:22;;;;;;;;;;;;;;;5.12;71.43;100842.00;5464553;32;34693;-75
2023/12/29 07:43:24;;;;;;;;;;;;;;;5.71;69.49;100840.50;5462387;32;36333;-72
2023/12/29 07:46:26;;;;;;;;;;;;;;;5.23;70.04;100834.97;5462386;32;34589;-73
2023/12/29 07:49:29;;;;;;;;;;;;;;;5.77;67.94;100831.75;5453586;32;35485;-72
2023/12/29 07:52:31;;;;;;;;;;;;;;;5.92;67.76;100839.41;5443562;32;34917;-69
2023/12/29 07:55:33;;;;;;;;;;;;;;;5.69;68.09;100834.44;5467171;32;34912;-72
2023/12/29 07:58:35;;;;;;;;;;;;;;;4.97;71.85;100844.78;5445670;32;34427;-73
2023/12/29 08:01:41;;;;;;;;;;;;;;;5.35;69.99;100837.44;5464573;32;34906;-72
2023/12/29 08:04:46;;;;;;;;;;;;;;;4.72;72.21;100841.50;5462901;32;34931;-70
2023/12/29 08:07:48;;;;;;;;;;;;;;;4.79;71.91;100837.97;5459940;32;34375;-69
2023/12/29 08:10:50;;;;;;;;;;;;;;;4.32;76.22;100855.66;5465809;32;34397;-69
2023/12/29 08:13:52;;;;;;;;;;;;;;;4.93;74.59;100835.25;5463012;32;35077;-71
2023/12/29 08:16:56;;;;;;;;;;;;;;;5.69;70.62;100850.09;5463905;32;34951;-69
2023/12/29 08:19:58;;;;;;;;;;;;;;;5.41;73.15;100849.56;5446375;32;35571;-69
2023/12/29 08:23:02;;;;;;;;;;;;;;;4.45;75.17;100863.41;5463260;32;35366;-69
2023/12/29 08:26:04;;;;;;;;;;;;;;;4.90;75.84;100859.59;5461184;32;35209;-72
2023/12/29 08:29:06;;;;;;;;;;;;;;;4.64;75.71;100867.59;5462523;32;34821;-70
2023/12/29 08:32:08;;;;;;;;;;;;;;;5.76;71.63;100866.53;5464732;32;35697;-73
2023/12/29 08:35:10;;;;;;;;;;;;;;;6.02;68.05;100864.50;5464087;32;35496;-70
2023/12/29 08:38:12;;;;;;;;;;;;;;;5.28;72.02;100860.94;5449193;32;35185;-72
2023/12/29 08:41:14;;;;;;;;;;;;;;;5.84;70.40;100859.47;5460776;32;35272;-71
2023/12/29 08:44:16;;;;;;;;;;;;;;;5.64;72.22;100850.16;5465032;32;34386;-72
2023/12/29 08:47:18;;;;;;;;;;;;;;;5.31;73.00;100858.34;5431681;32;35451;-72
2023/12/29 08:50:21;;;;;;;;;;;;;;;5.81;71.10;100852.56;5465024;32;34519;-71
2023/12/29 08:53:23;;;;;;;;;;;;;;;5.75;70.79;100863.06;5462627;32;35060;-69
2023/12/29 08:56:25;;;;;;;;;;;;;;;5.98;71.37;100852.38;5461789;32;35421;-73
2023/12/29 08:59:30;;;;;;;;;;;;;;;5.61;71.56;100851.94;5467069;32;35565;-72
2023/12/29 09:02:32;;;;;;;;;;;;;;;6.32;66.45;100854.53;5455076;32;35191;-72
2023/12/29 09:05:34;;;;;;;;;;;;;;;6.45;66.04;100849.12;5464676;32;34356;-73
2023/12/29 09:08:36;;;;;;;;;;;;;;;6.67;65.33;100859.22;5447936;32;35269;-72
2023/12/29 09:11:44;;;;;;;;;;;;;;;6.23;65.69;100863.34;5446337;32;35160;-72
2023/12/29 09:14:46;;;;;;;;;;;;;;;5.43;68.11;100864.28;5467390;32;36019;-73
2023/12/29 09:17:48;;;;;;;;;;;;;;;5.70;69.13;100851.81;5457166;32;34692;-72
2023/12/29 09:20:50;;;;;;;;;;;;;;;5.60;69.99;100853.69;5449778;32;36082;-70
2023/12/29 09:23:53;;;;;;;;;;;;;;;5.12;70.64;100857.66;5446784;32;34143;-70
2023/12/29 09:26:54;;;;;;;;;;;;;;;6.15;68.81;100846.94;5462020;32;34636;-71
2023/12/29 09:29:56;;;;;;;;;;;;;;;5.97;67.51;100856.72;5465329;32;34857;-72
2023/12/29 09:32:58;;;;;;;;;;;;;;;6.38;66.72;100857.94;5444691;32;34925;-73
2023/12/29 09:36:00;;;;;;;;;;;;;;;6.60;65.96;100861.06;5464610;32;34315;-74
2023/12/29 09:39:02;;;;;;;;;;;;;;;6.21;67.44;100849.47;5464818;32;34458;-70
2023/12/29 09:42:04;;;;;;;;;;;;;;;5.92;69.20;100847.22;5463603;32;34251;-72
2023/12/29 09:45:07;;;;;;;;;;;;;;;6.21;68.13;100852.94;5443869;32;34209;-70
2023/12/29 09:48:09;;;;;;;;;;;;;;;6.66;66.92;100857.50;5460333;32;34627;-71
2023/12/29 09:51:12;;;;;;;;;;;;;;;7.16;65.45;100843.59;5461092;32;34276;-70
2023/12/29 09:54:15;;;;;;;;;;;;;;;6.44;67.51;100842.19;5460103;32;34940;-70
2023/12/29 09:57:17;;;;;;;;;;;;;;;6.90;67.13;100837.97;5462295;32;34979;-74
2023/12/29 10:00:20;;;;;;;;;;;;;;;7.25;66.12;100832.97;5447996;32;35588;-70
2023/12/29 10:03:22;;;;;;;;;;;;;;;6.58;68.01;100828.06;5449927;32;34770;-69
2023/12/29 10:06:25;;;;;;;;;;;;;;;6.15;71.11;100826.06;5459743;32;35125;-71
2023/12/29 10:09:27;;;;;;;;;;;;;;;6.94;68.91;100818.72;5464087;32;34661;-70
2023/12/29 10:12:29;;;;;;;;;;;;;;;7.41;66.70;100822.25;5447856;32;34860;-74
2023/12/29 10:15:40;;;;;;;;;;;;;;;7.03;68.10;100816.81;5460717;32;35460;-70
2023/12/29 10:18:46;;;;;;;;;;;;;;;7.39;67.23;100809.19;5449471;32;34796;-73
2023/12/29 10:21:53;;;;;;;;;;;;;;;7.50;66.61;100811.59;5458725;32;35163;-71
2023/12/29 10:24:55;;;;;;;;;;;;;;;8.36;64.93;100803.63;5439187;32;34826;-71
2023/12/29 10:27:57;;;;;;;;;;;;;;;8.37;64.47;100801.88;5444892;32;35285;-70
2023/12/29 10:30:59;;;;;;;;;;;;;;;8.26;63.86;100798.63;5460490;32;34732;-72
2023/12/29 10:34:17;;;;;;;;;;;;;;;8.65;64.20;100786.37;5465862;32;35555;-70
2023/12/29 10:37:22;;;;;;;;;;;;;;;8.62;64.08;100782.06;5455988;32;34712;-73
2023/12/29 10:40:25;;;;;;;;;;;;;;;8.54;63.99;100786.63;5464732;32;35930;-71
2023/12/29 10:43:27;;;;;;;;;;;;;;;9.16;62.86;100775.44;5445273;32;35491;-69
2023/12/29 10:46:29;;;;;;;;;;;;;;;9.23;62.49;100775.22;5446392;32;34357;-70
2023/12/29 10:49:31;;;;;;;;;;;;;;;9.49;62.04;100773.66;5463677;32;35592;-71
2023/12/29 10:52:33;;;;;;;;;;;;;;;8.64;63.07;100774.19;5442169;32;35156;-70
2023/12/29 10:55:35;;;;;;;;;;;;;;;8.73;64.76;100765.22;5465216;32;34865;-70
2023/12/29 10:58:38;;;;;;;;;;;;;;;8.62;64.78;100768.09;5461252;32;34484;-72
2023/12/29 11:01:40;;;;;;;;;;;;;;;9.35;62.78;100766.16;5463347;32;34972;-72
2023/12/29 11:04:42;;;;;;;;;;;;;;;9.30;62.48;100770.69;5447383;32;35496;-69
2023/12/29 11:07:45;;;;;;;;;;;;;;;8.95;63.42;100758.50;5446627;32;35216;-69
2023/12/29 11:10:50;;;;;;;;;;;;;;;9.16;62.34;100752.69;5464483;32;35154;-73
2023/12/29 11:13:52;;;;;;;;;;;;;;;9.65;62.08;100747.81;5454816;32;34662;-72
2023/12/29 11:16:54;;;;;;;;;;;;;;;9.83;61.12;100746.41;5448938;32;34692;-73
2023/12/29 11:19:56;;;;;;;;;;;;;;;10.22;59.88;100739.91;5463415;32;35089;-70
2023/12/29 11:22:58;;;;;;;;;;;;;;;10.20;59.69;100736.47;5438024;32;34433;-71
2023/12/29 11:26:01;;;;;;;;;;;;;;;10.48;59.41;100717.22;5461813;32;35003;-69
2023/12/29 11:29:04;;;;;;;;;;;;;;;10.30;59.27;100719.56;5463748;32;35055;-73
2023/12/29 11:32:06;;;;;;;;;;;;;;;11.02;57.34;100721.50;5448925;32;35300;-74
2023/12/29 11:35:28;;;;;;;;;;;;;;;12.00;55.72;100717.84;5447495;32;35100;-70
2023/12/29 11:38:49;;;;;;;;;;;;;;;12.30;53.83;100707.81;5468523;32;33779;-72
2023/12/29 11:41:51;;;;;;;;;;;;;;;12.82;52.79;100716.19;5460412;32;34118;-74
2023/12/29 11:44:53;;;;;;;;;;;;;;;13.55;49.85;100702.38;5450420;32;35483;-70
2023/12/29 11:47:56;;;;;;;;;;;;;;;13.08;50.57;100689.53;5463254;32;34737;-71
2023/12/29 11:50:59;;;;;;;;;;;;;;;12.64;51.87;100691.47;5460904;32;34860;-73
2023/12/29 11:54:02;;;;;;;;;;;;;;;13.48;50.52;100685.97;5451286;32;34822;-70
2023/12/29 11:57:04;;;;;;;;;;;;;;;14.48;47.86;100675.88;5460725;32;34050;-73
2023/12/29 12:00:06;;;;;;;;;;;;;;;15.89;44.28;100659.44;5449590;32;34592;-74
2023/12/29 12:03:14;;;;;;;;;;;;;;;16.05;42.76;100669.19;5460571;32;34241;-70
2023/12/29 12:06:17;;;;;;;;;;;;;;;15.79;43.14;100665.38;5460745;32;34598;-73
2023/12/29 12:09:23;;;;;;;;;;;;;;;16.61;41.60;100649.09;5452769;32;34568;-73
2023/12/29 12:12:40;;;;;;;;;;;;;;;18.14;38.91;100650.94;5461032;32;34972;-70
2023/12/29 12:15:42;;;;;;;;;;;;;;;19.49;35.81;100643.34;5448211;32;35084;-73
2023/12/29 12:18:44;;;;;;;;;;;;;;;18.63;37.72;100650.31;5435842;32;34413;-73
2023/12/29 12:21:50;;;;;;;;;;;;;;;19.33;36.47;100640.09;5449353;32;34799;-72
2023/12/29 12:24:56;;;;;;;;;;;;;;;17.80;38.20;100642.53;5465739;32;36005;-69
2023/12/29 12:27:58;;;;;;;;;;;;;;;17.82;38.41;100645.09;5460922;32;34655;-71
2023/12/29 12:31:06;;;;;;;;;;;;;;;17.75;38.34;100634.00;5449877;32;35347;-71
2023/12/29 12:34:09;;;;;;;;;;;;;;;17.30;39.30;100635.97;5463484;32;34319;-72
2023/12/29 12:37:11;;;;;;;;;;;;;;;19.19;36.00;100637.53;5465189;32;35253;-73
2023/12/29 12:40:27;;;;;;;;;;;;;;;17.60;38.98;100627.84;5463701;32;34253;-70
2023/12/29 12:43:29;;;;;;;;;;;;;;;18.11;38.69;100630.75;5462893;32;34753;-74
2023/12/29 12:46:33;;;;;;;;;;;;;;;19.67;35.51;100621.69;5450721;32;34658;-70
2023/12/29 12:49:35;;;;;;;;;;;;;;;19.26;35.61;100628.16;5463614;32;35467;-74
2023/12/29 12:52:37;;;;;;;;;;;;;;;17.45;39.35;100634.16;5462116;32;34655;-70
2023/12/29 12:55:39;;;;;;;;;;;;;;;16.62;41.09;100633.09;5446062;32;34843;-74
2023/12/29 12:58:42;;;;;;;;;;;;;;;16.64;41.43;100633.84;5466879;32;34830;-69
2023/12/29 13:01:44;;;;;;;;;;;;;;;15.91;42.68;100639.03;5459079;32;34985;-71
2023/12/29 13:04:47;;;;;;;;;;;;;;;14.77;46.03;100643.50;5462789;32;35129;-72
2023/12/29 13:07:52;;;;;;;;;;;;;;;15.75;43.61;100642.62;5450455;32;37226;-70
2023/12/29 13:10:54;;;;;;;;;;;;;;;14.50;46.70;100639.63;5446233;32;33727;-73
2023/12/29 13:13:57;;;;;;;;;;;;;;;14.28;47.65;100629.25;5439753;32;34714;-70
2023/12/29 13:17:04;;;;;;;;;;;;;;;13.46;49.69;100636.78;5460726;32;35450;-70
2023/12/29 13:20:07;;;;;;;;;;;;;;;12.36;53.21;100626.72;5464836;32;33298;-70
2023/12/29 13:23:09;;;;;;;;;;;;;;;13.00;51.72;100637.06;5461979;32;35132;-73
2023/12/29 13:26:11;;;;;;;;;;;;;;;13.01;51.84;100627.41;5433424;32;34085;-71
2023/12/29 13:29:14;;;;;;;;;;;;;;;12.56;52.91;100619.72;5452174;32;34839;-72
2023/12/29 13:32:16;;;;;;;;;;;;;;;12.80;52.21;100634.47;5443864;32;34918;-73
2023/12/29 13:35:24;;;;;;;;;;;;;;;11.81;54.26;100630.78;5465868;32;34796;-73
2023/12/29 13:38:33;;;;;;;;;;;;;;;12.35;54.05;100637.31;5465155;32;35443;-73
2023/12/29 13:41:35;;;;;;;;;;;;;;;12.42;53.90;100639.63;5445819;32;35439;-72
2023/12/29 13:44:37;;;;;;;;;;;;;;;11.79;54.72;100636.09;5466532;32;35662;-70
2023/12/29 13:47:39;;;;;;;;;;;;;;;11.24;57.75;100635.59;5441805;32;34968;-71
2023/12/29 13:50:46;;;;;;;;;;;;;;;11.65;56.78;100618.19;5463664;32;34926;-72
2023/12/29 13:53:48;;;;;;;;;;;;;;;11.98;55.73;100622.19;5446350;32;34621;-74
2023/12/29 13:56:50;;;;;;;;;;;;;;;11.51;57.05;100624.94;5463970;32;35103;-73
2023/12/29 13:59:52;;;;;;;;;;;;;;;11.54;57.07;100623.03;5462633;32;34957;-73
2023/12/29 14:02:55;;;;;;;;;;;;;;;12.30;55.11;100623.47;5457922;32;34856;-70
2023/12/29 14:06:03;;;;;;;;;;;;;;;12.28;55.19;100617.44;5463339;32;36397;-70
2023/12/29 14:09:06;;;;;;;;;;;;;;;12.76;52.93;100622.38;5461861;32;35072;-74
2023/12/29 14:12:08;;;;;;;;;;;;;;;13.17;51.74;100625.75;5462900;32;34290;-74
2023/12/29 14:15:10;;;;;;;;;;;;;;;13.08;52.06;100638.53;5463579;32;34912;-72
2023/12/29 14:18:12;;;;;;;;;;;;;;;12.41;53.36;100639.69;5448539;32;34442;-71
2023/12/29 14:21:20;;;;;;;;;;;;;;;12.50;53.41;100647.25;5458504;32;34308;-71
2023/12/29 14:24:22;;;;;;;;;;;;;;;11.31;57.17;100657.28;5461336;32;34690;-72
2023/12/29 14:27:26;;;;;;;;;;;;;;;10.60;60.32;100642.34;5447580;32;34815;-73
2023/12/29 14:30:31;;;;;;;;;;;;;;;10.88;59.44;100648.31;5459463;32;35279;-69
2023/12/29 14:33:33;;;;;;;;;;;;;;;11.16;58.77;100636.81;5465608;32;34686;-70
2023/12/29 14:36:35;;;;;;;;;;;;;;;11.61;57.50;100631.56;5443754;32;35119;-70
2023/12/29 14:39:38;;;;;;;;;;;;;;;11.30;58.21;100645.91;5470034;32;34738;-70
2023/12/29 14:42:40;;;;;;;;;;;;;;;11.02;59.32;100653.13;5462782;32;35357;-73
2023/12/29 14:45:42;;;;;;;;;;;;;;;11.01;59.46;100659.25;5461182;32;35285;-70
2023/12/29 14:48:44;;;;;;;;;;;;;;;10.70;60.69;100667.41;5467977;32;34298;-72
2023/12/29 14:51:46;;;;;;;;;;;;;;;10.13;62.77;100665.81;5459533;32;34419;-71
2023/12/29 14:54:49;;;;;;;;;;;;;;;10.10;63.19;100669.38;5467559;32;34485;-72
2023/12/29 14:57:51;;;;;;;;;;;;;;;9.99;63.59;100676.78;5461148;32;35214;-71
2023/12/29 15:00:53;;;;;;;;;;;;;;;10.21;63.38;100671.66;5462153;32;34616;-73
2023/12/29 15:03:55;;;;;;;;;;;;;;;10.25;63.48;100671.56;5465153;32;35031;-70
2023/12/29 15:06:57;;;;;;;;;;;;;;;10.46;63.31;100675.22;5459790;32;34408;-70
2023/12/29 15:09:59;;;;;;;;;;;;;;;10.95;61.37;100678.78;5465172;32;34874;-70
2023/12/29 15:13:02;;;;;;;;;;;;;;;10.71;61.85;100680.50;5446912;32;34848;-71
2023/12/29 15:16:06;;;;;;;;;;;;;;;10.83;61.41;100676.59;5465612;32;34696;-70
2023/12/29 15:19:09;;;;;;;;;;;;;;;10.04;64.06;100677.47;5444613;32;36521;-70
2023/12/29 15:22:11;;;;;;;;;;;;;;;10.38;63.38;100679.03;5460384;32;34893;-72
2023/12/29 15:25:13;;;;;;;;;;;;;;;10.24;63.91;100682.97;5463571;32;34865;-71
2023/12/29 15:28:16;;;;;;;;;;;;;;;10.31;64.07;100683.63;5460833;32;34773;-70
2023/12/29 15:31:19;;;;;;;;;;;;;;;10.22;64.33;100692.62;5450781;32;35003;-70
2023/12/29 15:34:21;;;;;;;;;;;;;;;10.41;63.69;100690.28;5461744;32;34718;-71
2023/12/29 15:37:24;;;;;;;;;;;;;;;10.23;63.76;100680.38;5469629;32;34730;-72
2023/12/29 15:40:26;;;;;;;;;;;;;;;10.57;63.14;100680.97;5468402;32;35265;-71
2023/12/29 15:43:29;;;;;;;;;;;;;;;10.72;62.74;100674.31;5461405;32;35026;-73
2023/12/29 15:46:31;;;;;;;;;;;;;;;10.78;62.17;100679.38;5465135;32;35261;-70